sensor_id;sensor_type;location;lat;lon;timestamp;P1;durP1;ratioP1;P2;durP2;ratioP2
47625;SDS011;33342;45.574;9.252;2023-01-19T00:00:37;60.20;;;26.88;;
47625;SDS011;33342;45.574;9.252;2023-01-19T00:03:04;61.97;;;27.95;;
47625;SDS011;33342;45.574;9.252;2023-01-19T00:05:31;61.85;;;28.38;;
47625;SDS011;33342;45.574;9.252;2023-01-19T00:07:59;54.72;;;26.70;;
47625;SDS011;33342;45.574;9.252;2023-01-19T00:10:41;55.05;;;27.13;;
47625;SDS011;33342;45.574;9.252;2023-01-19T00:13:09;61.63;;;27.13;;
47625;SDS011;33342;45.574;9.252;2023-01-19T00:15:36;63.13;;;26.30;;
47625;SDS011;33342;45.574;9.252;2023-01-19T00:18:03;56.20;;;25.92;;
47625;SDS011;33342;45.574;9.252;2023-01-19T00:20:31;58.08;;;27.40;;
47625;SDS011;33342;45.574;9.252;2023-01-19T00:23:01;55.22;;;25.27;;
47625;SDS011;33342;45.574;9.252;2023-01-19T00:25:30;58.38;;;25.83;;
47625;SDS011;33342;45.574;9.252;2023-01-19T00:27:57;52.88;;;24.52;;
47625;SDS011;33342;45.574;9.252;2023-01-19T00:30:26;57.53;;;25.15;;
47625;SDS011;33342;45.574;9.252;2023-01-19T00:32:54;57.45;;;26.30;;
47625;SDS011;33342;45.574;9.252;2023-01-19T00:35:21;55.47;;;27.88;;
47625;SDS011;33342;45.574;9.252;2023-01-19T00:37:48;52.80;;;26.65;;
47625;SDS011;33342;45.574;9.252;2023-01-19T00:40:15;49.95;;;24.23;;
47625;SDS011;33342;45.574;9.252;2023-01-19T00:42:43;52.25;;;24.77;;
47625;SDS011;33342;45.574;9.252;2023-01-19T00:45:11;56.83;;;27.73;;
47625;SDS011;33342;45.574;9.252;2023-01-19T00:47:40;60.10;;;26.83;;
47625;SDS011;33342;45.574;9.252;2023-01-19T00:50:08;51.10;;;26.33;;
47625;SDS011;33342;45.574;9.252;2023-01-19T00:52:40;52.00;;;25.33;;
47625;SDS011;33342;45.574;9.252;2023-01-19T00:55:07;61.05;;;26.65;;
47625;SDS011;33342;45.574;9.252;2023-01-19T00:57:36;57.30;;;26.95;;
47625;SDS011;33342;45.574;9.252;2023-01-19T01:00:04;60.53;;;27.38;;
47625;SDS011;33342;45.574;9.252;2023-01-19T01:02:37;63.03;;;27.40;;
47625;SDS011;33342;45.574;9.252;2023-01-19T01:05:05;58.63;;;26.77;;
47625;SDS011;33342;45.574;9.252;2023-01-19T01:07:33;65.93;;;28.77;;
47625;SDS011;33342;45.574;9.252;2023-01-19T01:10:07;58.17;;;27.77;;
47625;SDS011;33342;45.574;9.252;2023-01-19T01:12:35;62.08;;;29.30;;
47625;SDS011;33342;45.574;9.252;2023-01-19T01:15:03;55.75;;;26.40;;
47625;SDS011;33342;45.574;9.252;2023-01-19T01:17:32;61.42;;;28.60;;
47625;SDS011;33342;45.574;9.252;2023-01-19T01:19:59;61.22;;;27.80;;
47625;SDS011;33342;45.574;9.252;2023-01-19T01:22:26;64.40;;;29.27;;
47625;SDS011;33342;45.574;9.252;2023-01-19T01:24:53;61.55;;;27.63;;
47625;SDS011;33342;45.574;9.252;2023-01-19T01:27:21;57.65;;;28.35;;
47625;SDS011;33342;45.574;9.252;2023-01-19T01:29:48;57.10;;;28.15;;
47625;SDS011;33342;45.574;9.252;2023-01-19T01:32:15;57.92;;;27.23;;
47625;SDS011;33342;45.574;9.252;2023-01-19T01:34:42;58.35;;;29.02;;
47625;SDS011;33342;45.574;9.252;2023-01-19T01:37:09;59.13;;;29.15;;
47625;SDS011;33342;45.574;9.252;2023-01-19T01:39:36;60.20;;;27.50;;
47625;SDS011;33342;45.574;9.252;2023-01-19T01:42:08;60.58;;;27.55;;
47625;SDS011;33342;45.574;9.252;2023-01-19T01:49:50;61.20;;;27.10;;
47625;SDS011;33342;45.574;9.252;2023-01-19T01:52:23;59.70;;;27.88;;
47625;SDS011;33342;45.574;9.252;2023-01-19T01:54:51;59.60;;;27.40;;
47625;SDS011;33342;45.574;9.252;2023-01-19T01:57:19;59.33;;;27.15;;
47625;SDS011;33342;45.574;9.252;2023-01-19T01:59:46;62.88;;;28.02;;
47625;SDS011;33342;45.574;9.252;2023-01-19T02:02:16;60.25;;;28.15;;
47625;SDS011;33342;45.574;9.252;2023-01-19T02:05:07;58.45;;;27.70;;
47625;SDS011;33342;45.574;9.252;2023-01-19T02:07:45;62.55;;;29.33;;
47625;SDS011;33342;45.574;9.252;2023-01-19T02:10:35;61.75;;;27.85;;
47625;SDS011;33342;45.574;9.252;2023-01-19T02:13:22;62.58;;;29.00;;
47625;SDS011;33342;45.574;9.252;2023-01-19T02:15:51;66.70;;;29.98;;
47625;SDS011;33342;45.574;9.252;2023-01-19T02:18:29;57.75;;;28.05;;
47625;SDS011;33342;45.574;9.252;2023-01-19T02:23:40;63.10;;;29.95;;
47625;SDS011;33342;45.574;9.252;2023-01-19T02:26:09;64.95;;;29.73;;
47625;SDS011;33342;45.574;9.252;2023-01-19T02:28:40;63.65;;;28.92;;
47625;SDS011;33342;45.574;9.252;2023-01-19T02:31:11;62.50;;;28.05;;
47625;SDS011;33342;45.574;9.252;2023-01-19T02:33:40;59.95;;;27.63;;
47625;SDS011;33342;45.574;9.252;2023-01-19T02:36:08;64.13;;;28.63;;
47625;SDS011;33342;45.574;9.252;2023-01-19T02:38:37;61.58;;;28.42;;
47625;SDS011;33342;45.574;9.252;2023-01-19T02:41:07;62.90;;;26.67;;
47625;SDS011;33342;45.574;9.252;2023-01-19T02:43:36;58.92;;;27.42;;
47625;SDS011;33342;45.574;9.252;2023-01-19T02:46:04;60.88;;;27.90;;
47625;SDS011;33342;45.574;9.252;2023-01-19T02:48:31;59.10;;;28.83;;
47625;SDS011;33342;45.574;9.252;2023-01-19T02:50:58;59.35;;;27.40;;
47625;SDS011;33342;45.574;9.252;2023-01-19T03:06:10;57.45;;;27.25;;
47625;SDS011;33342;45.574;9.252;2023-01-19T03:11:15;67.40;;;28.50;;
47625;SDS011;33342;45.574;9.252;2023-01-19T03:13:47;64.50;;;28.65;;
47625;SDS011;33342;45.574;9.252;2023-01-19T03:16:40;58.92;;;27.33;;
47625;SDS011;33342;45.574;9.252;2023-01-19T03:19:12;57.85;;;26.50;;
47625;SDS011;33342;45.574;9.252;2023-01-19T03:21:41;59.28;;;26.88;;
47625;SDS011;33342;45.574;9.252;2023-01-19T03:24:12;59.65;;;27.95;;
47625;SDS011;33342;45.574;9.252;2023-01-19T03:26:47;63.97;;;28.20;;
47625;SDS011;33342;45.574;9.252;2023-01-19T03:29:21;59.63;;;27.02;;
47625;SDS011;33342;45.574;9.252;2023-01-19T03:31:53;61.17;;;27.50;;
47625;SDS011;33342;45.574;9.252;2023-01-19T03:34:23;62.78;;;27.55;;
47625;SDS011;33342;45.574;9.252;2023-01-19T03:36:52;60.10;;;28.35;;
47625;SDS011;33342;45.574;9.252;2023-01-19T03:39:23;60.22;;;27.58;;
47625;SDS011;33342;45.574;9.252;2023-01-19T03:41:53;57.63;;;27.15;;
47625;SDS011;33342;45.574;9.252;2023-01-19T03:44:23;62.47;;;28.05;;
47625;SDS011;33342;45.574;9.252;2023-01-19T03:46:52;59.15;;;27.42;;
47625;SDS011;33342;45.574;9.252;2023-01-19T03:49:21;64.93;;;27.20;;
47625;SDS011;33342;45.574;9.252;2023-01-19T03:51:48;57.20;;;26.42;;
47625;SDS011;33342;45.574;9.252;2023-01-19T03:54:15;55.47;;;26.90;;
47625;SDS011;33342;45.574;9.252;2023-01-19T03:56:42;55.45;;;27.63;;
47625;SDS011;33342;45.574;9.252;2023-01-19T03:59:10;64.22;;;29.27;;
47625;SDS011;33342;45.574;9.252;2023-01-19T04:01:37;61.17;;;27.10;;
47625;SDS011;33342;45.574;9.252;2023-01-19T04:04:04;60.47;;;25.80;;
47625;SDS011;33342;45.574;9.252;2023-01-19T04:06:31;58.45;;;26.23;;
47625;SDS011;33342;45.574;9.252;2023-01-19T04:08:58;57.65;;;25.63;;
47625;SDS011;33342;45.574;9.252;2023-01-19T04:11:25;62.15;;;27.98;;
47625;SDS011;33342;45.574;9.252;2023-01-19T04:13:52;54.83;;;27.88;;
47625;SDS011;33342;45.574;9.252;2023-01-19T04:16:19;63.05;;;26.73;;
47625;SDS011;33342;45.574;9.252;2023-01-19T04:18:46;66.00;;;27.63;;
47625;SDS011;33342;45.574;9.252;2023-01-19T04:21:14;58.63;;;26.00;;
47625;SDS011;33342;45.574;9.252;2023-01-19T04:23:42;56.90;;;25.88;;
47625;SDS011;33342;45.574;9.252;2023-01-19T04:26:09;53.78;;;24.50;;
47625;SDS011;33342;45.574;9.252;2023-01-19T04:28:37;57.85;;;26.52;;
47625;SDS011;33342;45.574;9.252;2023-01-19T04:31:04;62.53;;;25.75;;
47625;SDS011;33342;45.574;9.252;2023-01-19T04:33:33;62.00;;;26.73;;
47625;SDS011;33342;45.574;9.252;2023-01-19T04:36:00;57.38;;;26.42;;
47625;SDS011;33342;45.574;9.252;2023-01-19T04:38:29;58.72;;;25.05;;
47625;SDS011;33342;45.574;9.252;2023-01-19T04:40:56;58.60;;;25.55;;
47625;SDS011;33342;45.574;9.252;2023-01-19T04:43:23;57.00;;;26.58;;
47625;SDS011;33342;45.574;9.252;2023-01-19T04:45:50;63.17;;;27.00;;
47625;SDS011;33342;45.574;9.252;2023-01-19T04:48:17;58.08;;;26.08;;
47625;SDS011;33342;45.574;9.252;2023-01-19T04:50:45;54.42;;;26.48;;
47625;SDS011;33342;45.574;9.252;2023-01-19T04:56:03;58.58;;;26.13;;
47625;SDS011;33342;45.574;9.252;2023-01-19T04:58:30;57.70;;;26.67;;
47625;SDS011;33342;45.574;9.252;2023-01-19T05:00:58;56.95;;;27.88;;
47625;SDS011;33342;45.574;9.252;2023-01-19T05:03:25;57.58;;;26.73;;
47625;SDS011;33342;45.574;9.252;2023-01-19T05:05:53;60.35;;;26.17;;
47625;SDS011;33342;45.574;9.252;2023-01-19T05:08:20;58.35;;;25.92;;
47625;SDS011;33342;45.574;9.252;2023-01-19T05:10:47;60.83;;;27.20;;
47625;SDS011;33342;45.574;9.252;2023-01-19T05:13:14;61.50;;;27.67;;
47625;SDS011;33342;45.574;9.252;2023-01-19T05:15:41;57.50;;;26.75;;
47625;SDS011;33342;45.574;9.252;2023-01-19T05:18:08;61.20;;;28.75;;
47625;SDS011;33342;45.574;9.252;2023-01-19T05:20:35;57.85;;;27.00;;
47625;SDS011;33342;45.574;9.252;2023-01-19T05:23:02;61.00;;;29.55;;
47625;SDS011;33342;45.574;9.252;2023-01-19T05:25:29;55.65;;;27.52;;
47625;SDS011;33342;45.574;9.252;2023-01-19T05:27:56;60.63;;;27.60;;
47625;SDS011;33342;45.574;9.252;2023-01-19T05:30:23;59.80;;;28.83;;
47625;SDS011;33342;45.574;9.252;2023-01-19T05:32:50;55.30;;;27.45;;
47625;SDS011;33342;45.574;9.252;2023-01-19T05:35:17;64.82;;;28.67;;
47625;SDS011;33342;45.574;9.252;2023-01-19T05:37:56;59.72;;;27.73;;
47625;SDS011;33342;45.574;9.252;2023-01-19T05:40:23;59.47;;;29.00;;
47625;SDS011;33342;45.574;9.252;2023-01-19T05:42:51;59.50;;;28.65;;
47625;SDS011;33342;45.574;9.252;2023-01-19T05:45:18;59.05;;;27.63;;
47625;SDS011;33342;45.574;9.252;2023-01-19T05:47:45;55.75;;;26.85;;
47625;SDS011;33342;45.574;9.252;2023-01-19T05:50:12;61.28;;;28.80;;
47625;SDS011;33342;45.574;9.252;2023-01-19T05:52:39;55.25;;;26.65;;
47625;SDS011;33342;45.574;9.252;2023-01-19T05:55:07;66.70;;;27.42;;
47625;SDS011;33342;45.574;9.252;2023-01-19T05:57:34;60.97;;;27.60;;
47625;SDS011;33342;45.574;9.252;2023-01-19T06:00:02;70.47;;;29.50;;
47625;SDS011;33342;45.574;9.252;2023-01-19T06:02:34;58.65;;;27.10;;
47625;SDS011;33342;45.574;9.252;2023-01-19T06:05:01;59.80;;;27.70;;
47625;SDS011;33342;45.574;9.252;2023-01-19T06:07:29;62.85;;;28.52;;
47625;SDS011;33342;45.574;9.252;2023-01-19T06:09:57;59.92;;;28.20;;
47625;SDS011;33342;45.574;9.252;2023-01-19T06:12:24;59.72;;;29.52;;
47625;SDS011;33342;45.574;9.252;2023-01-19T06:14:51;72.97;;;29.02;;
47625;SDS011;33342;45.574;9.252;2023-01-19T06:17:18;71.30;;;28.63;;
47625;SDS011;33342;45.574;9.252;2023-01-19T06:19:45;66.25;;;28.83;;
47625;SDS011;33342;45.574;9.252;2023-01-19T06:22:12;62.47;;;27.38;;
47625;SDS011;33342;45.574;9.252;2023-01-19T06:24:39;67.85;;;29.30;;
47625;SDS011;33342;45.574;9.252;2023-01-19T06:27:07;69.50;;;27.77;;
47625;SDS011;33342;45.574;9.252;2023-01-19T06:29:34;64.20;;;25.95;;
47625;SDS011;33342;45.574;9.252;2023-01-19T06:32:01;54.85;;;24.52;;
47625;SDS011;33342;45.574;9.252;2023-01-19T06:34:28;57.75;;;24.15;;
47625;SDS011;33342;45.574;9.252;2023-01-19T06:36:55;55.00;;;23.73;;
47625;SDS011;33342;45.574;9.252;2023-01-19T06:39:23;53.13;;;23.77;;
47625;SDS011;33342;45.574;9.252;2023-01-19T06:41:50;50.25;;;22.95;;
47625;SDS011;33342;45.574;9.252;2023-01-19T06:44:17;52.25;;;21.75;;
47625;SDS011;33342;45.574;9.252;2023-01-19T06:46:44;47.63;;;22.42;;
47625;SDS011;33342;45.574;9.252;2023-01-19T06:49:11;50.42;;;22.65;;
47625;SDS011;33342;45.574;9.252;2023-01-19T06:51:38;44.30;;;21.38;;
47625;SDS011;33342;45.574;9.252;2023-01-19T06:54:05;48.05;;;20.83;;
47625;SDS011;33342;45.574;9.252;2023-01-19T06:56:32;45.15;;;20.98;;
47625;SDS011;33342;45.574;9.252;2023-01-19T06:58:59;40.10;;;18.70;;
47625;SDS011;33342;45.574;9.252;2023-01-19T07:01:26;36.17;;;18.35;;
47625;SDS011;33342;45.574;9.252;2023-01-19T07:03:53;37.08;;;16.88;;
47625;SDS011;33342;45.574;9.252;2023-01-19T07:06:20;37.85;;;16.88;;
47625;SDS011;33342;45.574;9.252;2023-01-19T07:08:47;33.10;;;15.23;;
47625;SDS011;33342;45.574;9.252;2023-01-19T07:11:14;29.38;;;14.52;;
47625;SDS011;33342;45.574;9.252;2023-01-19T07:13:56;26.95;;;12.40;;
47625;SDS011;33342;45.574;9.252;2023-01-19T07:16:23;23.27;;;9.77;;
47625;SDS011;33342;45.574;9.252;2023-01-19T07:18:51;12.65;;;6.35;;
47625;SDS011;33342;45.574;9.252;2023-01-19T07:21:18;10.77;;;4.43;;
47625;SDS011;33342;45.574;9.252;2023-01-19T07:23:48;8.55;;;3.92;;
47625;SDS011;33342;45.574;9.252;2023-01-19T07:26:16;12.20;;;4.50;;
47625;SDS011;33342;45.574;9.252;2023-01-19T07:28:46;9.73;;;4.47;;
47625;SDS011;33342;45.574;9.252;2023-01-19T07:31:14;6.97;;;2.63;;
47625;SDS011;33342;45.574;9.252;2023-01-19T07:33:42;6.90;;;2.65;;
47625;SDS011;33342;45.574;9.252;2023-01-19T07:36:09;9.02;;;2.90;;
47625;SDS011;33342;45.574;9.252;2023-01-19T07:38:36;6.38;;;3.00;;
47625;SDS011;33342;45.574;9.252;2023-01-19T07:41:05;6.20;;;2.58;;
47625;SDS011;33342;45.574;9.252;2023-01-19T07:43:33;6.28;;;2.70;;
47625;SDS011;33342;45.574;9.252;2023-01-19T07:46:01;5.40;;;1.92;;
47625;SDS011;33342;45.574;9.252;2023-01-19T07:48:29;4.13;;;1.52;;
47625;SDS011;33342;45.574;9.252;2023-01-19T07:51:00;4.65;;;1.75;;
47625;SDS011;33342;45.574;9.252;2023-01-19T07:53:30;5.97;;;2.00;;
47625;SDS011;33342;45.574;9.252;2023-01-19T07:55:58;5.45;;;2.05;;
47625;SDS011;33342;45.574;9.252;2023-01-19T07:58:25;6.18;;;2.00;;
47625;SDS011;33342;45.574;9.252;2023-01-19T08:00:52;4.82;;;1.75;;
47625;SDS011;33342;45.574;9.252;2023-01-19T08:03:19;4.88;;;1.75;;
47625;SDS011;33342;45.574;9.252;2023-01-19T08:05:50;4.20;;;1.58;;
47625;SDS011;33342;45.574;9.252;2023-01-19T08:08:18;2.40;;;1.05;;
47625;SDS011;33342;45.574;9.252;2023-01-19T08:10:48;2.72;;;1.10;;
47625;SDS011;33342;45.574;9.252;2023-01-19T08:13:16;3.17;;;1.63;;
47625;SDS011;33342;45.574;9.252;2023-01-19T08:15:43;3.83;;;1.10;;
47625;SDS011;33342;45.574;9.252;2023-01-19T08:18:14;2.53;;;1.20;;
47625;SDS011;33342;45.574;9.252;2023-01-19T08:20:41;4.07;;;1.00;;
47625;SDS011;33342;45.574;9.252;2023-01-19T08:23:08;3.15;;;1.20;;
47625;SDS011;33342;45.574;9.252;2023-01-19T08:25:42;2.53;;;1.23;;
47625;SDS011;33342;45.574;9.252;2023-01-19T08:28:11;5.70;;;1.52;;
47625;SDS011;33342;45.574;9.252;2023-01-19T08:30:40;4.45;;;1.40;;
47625;SDS011;33342;45.574;9.252;2023-01-19T08:33:10;4.63;;;1.52;;
47625;SDS011;33342;45.574;9.252;2023-01-19T08:35:41;5.10;;;1.52;;
47625;SDS011;33342;45.574;9.252;2023-01-19T08:38:12;3.53;;;1.33;;
47625;SDS011;33342;45.574;9.252;2023-01-19T08:40:40;2.88;;;1.35;;
47625;SDS011;33342;45.574;9.252;2023-01-19T08:43:11;3.10;;;1.30;;
47625;SDS011;33342;45.574;9.252;2023-01-19T08:45:42;3.58;;;1.80;;
47625;SDS011;33342;45.574;9.252;2023-01-19T08:48:14;4.68;;;1.60;;
47625;SDS011;33342;45.574;9.252;2023-01-19T08:50:44;3.38;;;1.55;;
47625;SDS011;33342;45.574;9.252;2023-01-19T08:53:13;3.65;;;1.55;;
47625;SDS011;33342;45.574;9.252;2023-01-19T08:55:40;5.85;;;1.55;;
47625;SDS011;33342;45.574;9.252;2023-01-19T08:58:08;5.20;;;1.67;;
47625;SDS011;33342;45.574;9.252;2023-01-19T09:00:36;3.15;;;1.40;;
47625;SDS011;33342;45.574;9.252;2023-01-19T09:03:05;3.83;;;1.27;;
47625;SDS011;33342;45.574;9.252;2023-01-19T09:05:34;3.80;;;1.70;;
47625;SDS011;33342;45.574;9.252;2023-01-19T09:08:05;3.67;;;1.90;;
47625;SDS011;33342;45.574;9.252;2023-01-19T09:10:35;4.05;;;1.67;;
47625;SDS011;33342;45.574;9.252;2023-01-19T09:13:04;4.53;;;2.15;;
47625;SDS011;33342;45.574;9.252;2023-01-19T09:15:34;4.82;;;1.75;;
47625;SDS011;33342;45.574;9.252;2023-01-19T09:18:04;3.30;;;1.50;;
47625;SDS011;33342;45.574;9.252;2023-01-19T09:20:32;5.00;;;1.83;;
47625;SDS011;33342;45.574;9.252;2023-01-19T09:23:01;3.70;;;1.55;;
47625;SDS011;33342;45.574;9.252;2023-01-19T09:25:28;3.85;;;1.40;;
47625;SDS011;33342;45.574;9.252;2023-01-19T09:27:57;3.53;;;1.40;;
47625;SDS011;33342;45.574;9.252;2023-01-19T09:30:25;8.38;;;1.50;;
47625;SDS011;33342;45.574;9.252;2023-01-19T09:32:53;4.72;;;1.77;;
47625;SDS011;33342;45.574;9.252;2023-01-19T09:35:20;4.72;;;1.65;;
47625;SDS011;33342;45.574;9.252;2023-01-19T09:37:47;4.63;;;1.40;;
47625;SDS011;33342;45.574;9.252;2023-01-19T09:40:14;3.33;;;1.45;;
47625;SDS011;33342;45.574;9.252;2023-01-19T09:42:46;4.55;;;1.40;;
47625;SDS011;33342;45.574;9.252;2023-01-19T09:45:26;3.63;;;1.30;;
47625;SDS011;33342;45.574;9.252;2023-01-19T09:48:19;4.20;;;2.05;;
47625;SDS011;33342;45.574;9.252;2023-01-19T09:50:55;5.35;;;1.65;;
47625;SDS011;33342;45.574;9.252;2023-01-19T09:53:38;4.30;;;1.70;;
47625;SDS011;33342;45.574;9.252;2023-01-19T09:56:11;4.15;;;2.03;;
47625;SDS011;33342;45.574;9.252;2023-01-19T09:58:40;3.13;;;1.60;;
47625;SDS011;33342;45.574;9.252;2023-01-19T10:01:20;3.15;;;1.77;;
47625;SDS011;33342;45.574;9.252;2023-01-19T10:06:40;6.43;;;2.50;;
47625;SDS011;33342;45.574;9.252;2023-01-19T10:09:13;8.18;;;2.28;;
47625;SDS011;33342;45.574;9.252;2023-01-19T10:12:00;6.40;;;2.50;;
47625;SDS011;33342;45.574;9.252;2023-01-19T10:14:41;5.70;;;2.58;;
47625;SDS011;33342;45.574;9.252;2023-01-19T10:17:17;7.07;;;2.83;;
47625;SDS011;33342;45.574;9.252;2023-01-19T10:19:57;6.57;;;2.20;;
47625;SDS011;33342;45.574;9.252;2023-01-19T10:22:27;5.20;;;2.50;;
47625;SDS011;33342;45.574;9.252;2023-01-19T10:24:55;4.30;;;1.98;;
47625;SDS011;33342;45.574;9.252;2023-01-19T10:27:27;7.15;;;2.85;;
47625;SDS011;33342;45.574;9.252;2023-01-19T10:29:56;6.15;;;2.78;;
47625;SDS011;33342;45.574;9.252;2023-01-19T10:32:28;5.18;;;2.53;;
47625;SDS011;33342;45.574;9.252;2023-01-19T10:34:59;7.13;;;2.88;;
47625;SDS011;33342;45.574;9.252;2023-01-19T10:42:31;5.93;;;2.42;;
47625;SDS011;33342;45.574;9.252;2023-01-19T10:44:58;6.10;;;2.80;;
47625;SDS011;33342;45.574;9.252;2023-01-19T10:47:29;6.15;;;2.83;;
47625;SDS011;33342;45.574;9.252;2023-01-19T10:50:04;8.32;;;2.85;;
47625;SDS011;33342;45.574;9.252;2023-01-19T10:52:52;5.57;;;2.65;;
47625;SDS011;33342;45.574;9.252;2023-01-19T10:56:07;6.68;;;3.00;;
47625;SDS011;33342;45.574;9.252;2023-01-19T10:58:35;6.35;;;2.63;;
47625;SDS011;33342;45.574;9.252;2023-01-19T11:01:13;6.22;;;2.60;;
47625;SDS011;33342;45.574;9.252;2023-01-19T11:03:43;6.00;;;2.40;;
47625;SDS011;33342;45.574;9.252;2023-01-19T11:08:43;6.25;;;2.75;;
47625;SDS011;33342;45.574;9.252;2023-01-19T11:11:12;5.65;;;2.65;;
47625;SDS011;33342;45.574;9.252;2023-01-19T11:13:39;5.00;;;2.63;;
47625;SDS011;33342;45.574;9.252;2023-01-19T11:21:24;5.07;;;2.30;;
47625;SDS011;33342;45.574;9.252;2023-01-19T11:23:56;5.22;;;2.05;;
47625;SDS011;33342;45.574;9.252;2023-01-19T11:28:54;38.80;;;22.65;;
47625;SDS011;33342;45.574;9.252;2023-01-19T11:31:29;5.45;;;2.45;;
47625;SDS011;33342;45.574;9.252;2023-01-19T11:36:32;4.75;;;1.63;;
47625;SDS011;33342;45.574;9.252;2023-01-19T11:39:21;3.83;;;1.08;;
47625;SDS011;33342;45.574;9.252;2023-01-19T11:42:00;3.15;;;1.02;;
47625;SDS011;33342;45.574;9.252;2023-01-19T11:47:02;2.45;;;0.90;;
47625;SDS011;33342;45.574;9.252;2023-01-19T11:49:44;2.20;;;0.70;;
47625;SDS011;33342;45.574;9.252;2023-01-19T11:52:24;2.03;;;0.70;;
47625;SDS011;33342;45.574;9.252;2023-01-19T11:55:02;2.42;;;0.95;;
47625;SDS011;33342;45.574;9.252;2023-01-19T11:57:31;1.60;;;0.70;;
47625;SDS011;33342;45.574;9.252;2023-01-19T12:03:18;2.95;;;1.05;;
47625;SDS011;33342;45.574;9.252;2023-01-19T12:06:02;1.98;;;1.00;;
47625;SDS011;33342;45.574;9.252;2023-01-19T12:08:36;3.67;;;0.98;;
47625;SDS011;33342;45.574;9.252;2023-01-19T12:11:08;2.63;;;0.93;;
47625;SDS011;33342;45.574;9.252;2023-01-19T12:13:38;2.78;;;1.20;;
47625;SDS011;33342;45.574;9.252;2023-01-19T12:16:08;7.40;;;1.95;;
47625;SDS011;33342;45.574;9.252;2023-01-19T12:19:01;3.00;;;1.05;;
47625;SDS011;33342;45.574;9.252;2023-01-19T12:21:29;3.42;;;1.40;;
47625;SDS011;33342;45.574;9.252;2023-01-19T12:24:12;2.20;;;0.90;;
47625;SDS011;33342;45.574;9.252;2023-01-19T12:26:56;4.68;;;1.48;;
47625;SDS011;33342;45.574;9.252;2023-01-19T12:29:32;3.42;;;1.10;;
47625;SDS011;33342;45.574;9.252;2023-01-19T12:34:43;2.22;;;1.00;;
47625;SDS011;33342;45.574;9.252;2023-01-19T12:40:17;3.58;;;1.10;;
47625;SDS011;33342;45.574;9.252;2023-01-19T12:45:29;3.67;;;1.33;;
47625;SDS011;33342;45.574;9.252;2023-01-19T12:48:01;2.92;;;1.17;;
47625;SDS011;33342;45.574;9.252;2023-01-19T12:50:31;3.80;;;1.20;;
47625;SDS011;33342;45.574;9.252;2023-01-19T12:53:03;2.72;;;1.05;;
47625;SDS011;33342;45.574;9.252;2023-01-19T12:55:40;4.07;;;1.27;;
47625;SDS011;33342;45.574;9.252;2023-01-19T12:58:13;5.47;;;1.42;;
47625;SDS011;33342;45.574;9.252;2023-01-19T13:00:44;5.60;;;1.75;;
47625;SDS011;33342;45.574;9.252;2023-01-19T13:08:24;6.03;;;2.50;;
47625;SDS011;33342;45.574;9.252;2023-01-19T13:11:16;4.70;;;2.03;;
47625;SDS011;33342;45.574;9.252;2023-01-19T13:24:01;7.05;;;2.17;;
47625;SDS011;33342;45.574;9.252;2023-01-19T13:26:31;4.65;;;2.00;;
47625;SDS011;33342;45.574;9.252;2023-01-19T13:31:34;6.10;;;2.75;;
47625;SDS011;33342;45.574;9.252;2023-01-19T13:34:04;4.50;;;2.50;;
47625;SDS011;33342;45.574;9.252;2023-01-19T13:36:40;6.40;;;2.10;;
47625;SDS011;33342;45.574;9.252;2023-01-19T13:39:19;7.13;;;2.53;;
47625;SDS011;33342;45.574;9.252;2023-01-19T13:41:54;6.95;;;2.65;;
47625;SDS011;33342;45.574;9.252;2023-01-19T13:44:25;5.18;;;2.40;;
47625;SDS011;33342;45.574;9.252;2023-01-19T13:46:56;6.80;;;2.67;;
47625;SDS011;33342;45.574;9.252;2023-01-19T13:49:26;9.50;;;4.40;;
47625;SDS011;33342;45.574;9.252;2023-01-19T13:55:00;6.18;;;2.85;;
47625;SDS011;33342;45.574;9.252;2023-01-19T14:02:37;5.53;;;2.50;;
47625;SDS011;33342;45.574;9.252;2023-01-19T14:05:13;5.38;;;2.75;;
47625;SDS011;33342;45.574;9.252;2023-01-19T14:07:40;5.07;;;2.40;;
47625;SDS011;33342;45.574;9.252;2023-01-19T14:10:11;7.07;;;2.80;;
47625;SDS011;33342;45.574;9.252;2023-01-19T14:12:39;6.20;;;2.55;;
47625;SDS011;33342;45.574;9.252;2023-01-19T14:15:24;7.38;;;3.03;;
47625;SDS011;33342;45.574;9.252;2023-01-19T14:21:05;6.97;;;2.80;;
47625;SDS011;33342;45.574;9.252;2023-01-19T14:32:04;6.82;;;2.50;;
47625;SDS011;33342;45.574;9.252;2023-01-19T14:34:47;4.20;;;2.10;;
47625;SDS011;33342;45.574;9.252;2023-01-19T14:37:20;8.73;;;3.58;;
47625;SDS011;33342;45.574;9.252;2023-01-19T14:39:53;6.50;;;3.00;;
47625;SDS011;33342;45.574;9.252;2023-01-19T14:42:31;3.25;;;1.67;;
47625;SDS011;33342;45.574;9.252;2023-01-19T14:45:07;4.82;;;1.60;;
47625;SDS011;33342;45.574;9.252;2023-01-19T14:47:55;3.22;;;1.48;;
47625;SDS011;33342;45.574;9.252;2023-01-19T14:50:33;4.05;;;1.63;;
47625;SDS011;33342;45.574;9.252;2023-01-19T14:53:18;4.40;;;1.60;;
47625;SDS011;33342;45.574;9.252;2023-01-19T14:55:51;5.88;;;3.25;;
47625;SDS011;33342;45.574;9.252;2023-01-19T14:58:25;6.57;;;2.53;;
47625;SDS011;33342;45.574;9.252;2023-01-19T15:00:54;4.88;;;2.47;;
47625;SDS011;33342;45.574;9.252;2023-01-19T15:03:22;4.70;;;2.20;;
47625;SDS011;33342;45.574;9.252;2023-01-19T15:06:10;4.35;;;1.77;;
47625;SDS011;33342;45.574;9.252;2023-01-19T15:08:40;7.18;;;2.50;;
47625;SDS011;33342;45.574;9.252;2023-01-19T15:13:56;3.42;;;1.70;;
47625;SDS011;33342;45.574;9.252;2023-01-19T15:16:24;4.72;;;2.00;;
47625;SDS011;33342;45.574;9.252;2023-01-19T15:18:53;5.07;;;2.25;;
47625;SDS011;33342;45.574;9.252;2023-01-19T15:21:20;7.38;;;2.40;;
47625;SDS011;33342;45.574;9.252;2023-01-19T15:23:52;6.70;;;2.10;;
47625;SDS011;33342;45.574;9.252;2023-01-19T15:26:21;4.20;;;1.77;;
47625;SDS011;33342;45.574;9.252;2023-01-19T15:28:50;5.53;;;2.25;;
47625;SDS011;33342;45.574;9.252;2023-01-19T15:31:19;4.70;;;1.75;;
47625;SDS011;33342;45.574;9.252;2023-01-19T15:33:47;2.78;;;1.30;;
47625;SDS011;33342;45.574;9.252;2023-01-19T15:36:18;3.70;;;1.90;;
47625;SDS011;33342;45.574;9.252;2023-01-19T15:38:46;5.05;;;2.13;;
47625;SDS011;33342;45.574;9.252;2023-01-19T15:43:50;4.53;;;2.20;;
47625;SDS011;33342;45.574;9.252;2023-01-19T15:46:18;6.00;;;2.10;;
47625;SDS011;33342;45.574;9.252;2023-01-19T15:48:46;5.13;;;1.90;;
47625;SDS011;33342;45.574;9.252;2023-01-19T15:51:16;5.00;;;1.80;;
47625;SDS011;33342;45.574;9.252;2023-01-19T15:53:47;5.93;;;1.90;;
47625;SDS011;33342;45.574;9.252;2023-01-19T15:56:22;5.88;;;2.00;;
47625;SDS011;33342;45.574;9.252;2023-01-19T15:58:51;5.35;;;2.25;;
47625;SDS011;33342;45.574;9.252;2023-01-19T16:01:20;5.15;;;2.10;;
47625;SDS011;33342;45.574;9.252;2023-01-19T16:03:49;3.25;;;1.70;;
47625;SDS011;33342;45.574;9.252;2023-01-19T16:06:16;6.15;;;2.17;;
47625;SDS011;33342;45.574;9.252;2023-01-19T16:08:43;4.97;;;2.40;;
47625;SDS011;33342;45.574;9.252;2023-01-19T16:11:14;5.25;;;2.40;;
47625;SDS011;33342;45.574;9.252;2023-01-19T16:13:45;5.80;;;2.00;;
47625;SDS011;33342;45.574;9.252;2023-01-19T16:16:17;4.63;;;2.20;;
47625;SDS011;33342;45.574;9.252;2023-01-19T16:18:46;4.93;;;2.53;;
47625;SDS011;33342;45.574;9.252;2023-01-19T16:21:13;6.63;;;2.40;;
47625;SDS011;33342;45.574;9.252;2023-01-19T16:23:40;5.32;;;2.45;;
47625;SDS011;33342;45.574;9.252;2023-01-19T16:26:21;7.53;;;2.97;;
47625;SDS011;33342;45.574;9.252;2023-01-19T16:28:55;5.60;;;2.20;;
47625;SDS011;33342;45.574;9.252;2023-01-19T16:31:26;5.43;;;2.42;;
47625;SDS011;33342;45.574;9.252;2023-01-19T16:33:54;5.70;;;2.35;;
47625;SDS011;33342;45.574;9.252;2023-01-19T16:38:50;5.80;;;2.35;;
47625;SDS011;33342;45.574;9.252;2023-01-19T16:41:17;5.70;;;2.50;;